sensor_id;sensor_type;location;lat;lon;timestamp;pressure;altitude;pressure_sealevel;temperature;humidity
44144;BME280;71749;51.920;4.492;2024-02-23T00:00:37;66902.97;;;9.40;100.00
44144;BME280;71749;51.920;4.492;2024-02-23T00:03:25;66880.31;;;9.22;100.00
44144;BME280;71749;51.920;4.492;2024-02-23T00:06:11;66859.31;;;9.06;100.00
44144;BME280;71749;51.920;4.492;2024-02-23T00:08:57;66849.50;;;8.92;100.00
44144;BME280;71749;51.920;4.492;2024-02-23T00:11:43;66847.44;;;8.92;100.00
44144;BME280;71749;51.920;4.492;2024-02-23T00:14:33;66844.50;;;8.87;100.00
44144;BME280;71749;51.920;4.492;2024-02-23T00:17:20;66860.63;;;9.02;100.00
44144;BME280;71749;51.920;4.492;2024-02-23T00:20:08;66827.94;;;8.75;100.00
44144;BME280;71749;51.920;4.492;2024-02-23T00:22:55;66820.16;;;8.68;100.00
44144;BME280;71749;51.920;4.492;2024-02-23T00:25:41;66849.09;;;8.94;100.00
44144;BME280;71749;51.920;4.492;2024-02-23T00:28:27;66844.28;;;8.92;100.00
44144;BME280;71749;51.920;4.492;2024-02-23T00:31:12;66872.13;;;9.17;100.00
44144;BME280;71749;51.920;4.492;2024-02-23T00:33:57;66854.69;;;8.99;100.00
44144;BME280;71749;51.920;4.492;2024-02-23T00:36:43;66773.38;;;8.25;100.00
44144;BME280;71749;51.920;4.492;2024-02-23T00:39:31;66827.78;;;8.72;100.00
44144;BME280;71749;51.920;4.492;2024-02-23T00:42:17;66825.53;;;8.70;100.00
44144;BME280;71749;51.920;4.492;2024-02-23T00:45:03;66848.19;;;8.88;100.00
44144;BME280;71749;51.920;4.492;2024-02-23T00:47:48;66845.03;;;8.88;100.00
44144;BME280;71749;51.920;4.492;2024-02-23T00:50:33;66847.44;;;8.92;100.00
44144;BME280;71749;51.920;4.492;2024-02-23T00:53:18;66848.38;;;8.91;100.00
44144;BME280;71749;51.920;4.492;2024-02-23T00:56:05;66857.69;;;8.97;100.00
44144;BME280;71749;51.920;4.492;2024-02-23T00:58:51;66840.75;;;8.86;100.00
44144;BME280;71749;51.920;4.492;2024-02-23T01:01:36;66759.28;;;8.10;100.00
44144;BME280;71749;51.920;4.492;2024-02-23T01:04:22;66787.88;;;8.38;100.00
44144;BME280;71749;51.920;4.492;2024-02-23T01:07:07;66814.03;;;8.62;100.00
44144;BME280;71749;51.920;4.492;2024-02-23T01:09:53;66816.25;;;8.64;100.00
44144;BME280;71749;51.920;4.492;2024-02-23T01:12:38;66847.25;;;8.90;100.00
44144;BME280;71749;51.920;4.492;2024-02-23T01:15:24;66817.91;;;8.66;100.00
44144;BME280;71749;51.920;4.492;2024-02-23T01:18:09;66835.41;;;8.77;100.00
44144;BME280;71749;51.920;4.492;2024-02-23T01:20:56;66853.94;;;8.96;100.00
44144;BME280;71749;51.920;4.492;2024-02-23T01:23:42;66802.16;;;8.49;100.00
44144;BME280;71749;51.920;4.492;2024-02-23T01:26:28;66857.69;;;8.97;100.00
44144;BME280;71749;51.920;4.492;2024-02-23T01:29:13;66841.69;;;8.85;100.00
44144;BME280;71749;51.920;4.492;2024-02-23T01:31:58;66813.28;;;8.59;100.00
44144;BME280;71749;51.920;4.492;2024-02-23T01:34:44;66831.69;;;8.76;100.00
44144;BME280;71749;51.920;4.492;2024-02-23T01:37:32;66822.22;;;8.67;100.00
44144;BME280;71749;51.920;4.492;2024-02-23T01:40:17;66833.53;;;8.80;100.00
44144;BME280;71749;51.920;4.492;2024-02-23T01:43:06;66842.63;;;8.83;100.00
44144;BME280;71749;51.920;4.492;2024-02-23T01:45:52;66853.38;;;8.95;100.00
44144;BME280;71749;51.920;4.492;2024-02-23T01:48:37;66865.81;;;9.09;100.00
44144;BME280;71749;51.920;4.492;2024-02-23T01:51:24;66853.56;;;8.98;100.00
44144;BME280;71749;51.920;4.492;2024-02-23T01:54:10;66868.59;;;9.12;100.00
44144;BME280;71749;51.920;4.492;2024-02-23T01:56:56;66858.81;;;8.98;100.00
44144;BME280;71749;51.920;4.492;2024-02-23T01:59:42;66870.13;;;9.11;100.00
44144;BME280;71749;51.920;4.492;2024-02-23T02:02:28;66821.28;;;8.69;100.00
44144;BME280;71749;51.920;4.492;2024-02-23T02:05:14;66857.84;;;8.99;100.00
44144;BME280;71749;51.920;4.492;2024-02-23T02:07:59;66862.47;;;9.06;100.00
44144;BME280;71749;51.920;4.492;2024-02-23T02:10:46;66865.81;;;9.09;100.00
44144;BME280;71749;51.920;4.492;2024-02-23T02:13:32;66888.88;;;9.25;100.00
44144;BME280;71749;51.920;4.492;2024-02-23T02:16:17;66888.31;;;9.25;100.00
44144;BME280;71749;51.920;4.492;2024-02-23T02:19:03;66859.50;;;9.01;100.00
44144;BME280;71749;51.920;4.492;2024-02-23T02:21:48;66887.19;;;9.24;100.00
44144;BME280;71749;51.920;4.492;2024-02-23T02:24:34;66879.75;;;9.22;100.00
44144;BME280;71749;51.920;4.492;2024-02-23T02:27:19;66841.88;;;8.87;100.00
44144;BME280;71749;51.920;4.492;2024-02-23T02:30:04;66850.22;;;8.95;100.00
44144;BME280;71749;51.920;4.492;2024-02-23T02:32:50;66876.81;;;9.17;100.00
44144;BME280;71749;51.920;4.492;2024-02-23T02:35:35;66885.13;;;9.24;100.00
44144;BME280;71749;51.920;4.492;2024-02-23T02:38:21;66891.66;;;9.28;100.00
44144;BME280;71749;51.920;4.492;2024-02-23T02:41:06;66872.72;;;9.11;100.00
44144;BME280;71749;51.920;4.492;2024-02-23T02:43:52;66858.56;;;9.02;100.00
44144;BME280;71749;51.920;4.492;2024-02-23T02:46:40;66864.16;;;9.08;100.00
44144;BME280;71749;51.920;4.492;2024-02-23T02:49:25;66876.06;;;9.14;100.00
44144;BME280;71749;51.920;4.492;2024-02-23T02:52:11;66877.19;;;9.15;100.00
44144;BME280;71749;51.920;4.492;2024-02-23T02:54:56;66853.56;;;8.98;100.00
44144;BME280;71749;51.920;4.492;2024-02-23T02:57:44;66863.59;;;9.07;100.00
44144;BME280;71749;51.920;4.492;2024-02-23T03:00:29;66856.91;;;9.01;100.00
44144;BME280;71749;51.920;4.492;2024-02-23T03:03:16;66830.72;;;8.77;100.00
44144;BME280;71749;51.920;4.492;2024-02-23T03:06:01;66833.75;;;8.75;100.00
44144;BME280;71749;51.920;4.492;2024-02-23T03:08:46;66859.69;;;9.04;100.00
44144;BME280;71749;51.920;4.492;2024-02-23T03:11:33;66852.28;;;8.94;100.00
44144;BME280;71749;51.920;4.492;2024-02-23T03:14:19;66847.25;;;8.90;100.00
44144;BME280;71749;51.920;4.492;2024-02-23T03:17:09;66843.94;;;8.87;100.00
44144;BME280;71749;51.920;4.492;2024-02-23T03:19:55;66834.63;;;8.81;100.00
44144;BME280;71749;51.920;4.492;2024-02-23T03:22:40;66808.28;;;8.54;100.00
44144;BME280;71749;51.920;4.492;2024-02-23T03:25:26;66825.72;;;8.73;100.00
44144;BME280;71749;51.920;4.492;2024-02-23T03:28:11;66811.25;;;8.59;100.00
44144;BME280;71749;51.920;4.492;2024-02-23T03:30:56;66817.91;;;8.66;100.00
44144;BME280;71749;51.920;4.492;2024-02-23T03:33:42;66821.28;;;8.69;100.00
44144;BME280;71749;51.920;4.492;2024-02-23T03:36:27;66821.66;;;8.67;100.00
44144;BME280;71749;51.920;4.492;2024-02-23T03:39:13;66797.16;;;8.44;100.00
44144;BME280;71749;51.920;4.492;2024-02-23T03:41:58;66829.06;;;8.76;100.00
44144;BME280;71749;51.920;4.492;2024-02-23T03:44:43;66801.03;;;8.48;100.00
44144;BME280;71749;51.920;4.492;2024-02-23T03:47:28;66797.53;;;8.42;100.00
44144;BME280;71749;51.920;4.492;2024-02-23T03:50:14;66808.66;;;8.52;100.00
44144;BME280;71749;51.920;4.492;2024-02-23T03:52:59;66817.19;;;8.63;100.00
44144;BME280;71749;51.920;4.492;2024-02-23T03:55:45;66798.84;;;8.46;100.00
44144;BME280;71749;51.920;4.492;2024-02-23T03:58:30;66795.09;;;8.45;100.00
44144;BME280;71749;51.920;4.492;2024-02-23T04:01:19;66790.06;;;8.40;100.00
44144;BME280;71749;51.920;4.492;2024-02-23T04:04:05;66812.00;;;8.55;100.00
44144;BME280;71749;51.920;4.492;2024-02-23T04:06:50;66818.31;;;8.64;100.00
44144;BME280;71749;51.920;4.492;2024-02-23T04:09:36;66815.16;;;8.63;100.00
44144;BME280;71749;51.920;4.492;2024-02-23T04:12:21;66811.44;;;8.55;100.00
44144;BME280;71749;51.920;4.492;2024-02-23T04:15:07;66805.88;;;8.50;100.00
44144;BME280;71749;51.920;4.492;2024-02-23T04:17:52;66796.59;;;8.44;100.00
44144;BME280;71749;51.920;4.492;2024-02-23T04:20:37;66782.84;;;8.34;100.00
44144;BME280;71749;51.920;4.492;2024-02-23T04:23:22;66806.78;;;8.55;100.00
44144;BME280;71749;51.920;4.492;2024-02-23T04:26:08;66814.97;;;8.60;100.00
44144;BME280;71749;51.920;4.492;2024-02-23T04:28:53;66811.63;;;8.57;100.00
44144;BME280;71749;51.920;4.492;2024-02-23T04:31:39;66818.47;;;8.66;100.00
44144;BME280;71749;51.920;4.492;2024-02-23T04:34:24;66819.03;;;8.67;100.00
44144;BME280;71749;51.920;4.492;2024-02-23T04:37:10;66791.03;;;8.39;100.00
44144;BME280;71749;51.920;4.492;2024-02-23T04:39:58;66795.47;;;8.43;100.00
44144;BME280;71749;51.920;4.492;2024-02-23T04:42:44;66823.47;;;8.71;100.00
44144;BME280;71749;51.920;4.492;2024-02-23T04:45:30;66829.44;;;8.74;100.00
44144;BME280;71749;51.920;4.492;2024-02-23T04:48:15;66789.19;;;8.35;100.00
44144;BME280;71749;51.920;4.492;2024-02-23T04:51:00;66817.03;;;8.60;100.00
44144;BME280;71749;51.920;4.492;2024-02-23T04:53:45;66831.84;;;8.78;100.00
44144;BME280;71749;51.920;4.492;2024-02-23T04:56:31;66837.41;;;8.83;100.00
44144;BME280;71749;51.920;4.492;2024-02-23T04:59:18;66816.47;;;8.59;100.00
44144;BME280;71749;51.920;4.492;2024-02-23T05:02:04;66828.50;;;8.75;100.00
44144;BME280;71749;51.920;4.492;2024-02-23T05:04:49;66842.06;;;8.83;100.00
44144;BME280;71749;51.920;4.492;2024-02-23T05:07:35;66837.41;;;8.83;100.00
44144;BME280;71749;51.920;4.492;2024-02-23T05:10:22;66826.09;;;8.71;100.00
44144;BME280;71749;51.920;4.492;2024-02-23T05:13:08;66835.94;;;8.77;100.00
44144;BME280;71749;51.920;4.492;2024-02-23T05:15:55;66794.91;;;8.42;100.00
44144;BME280;71749;51.920;4.492;2024-02-23T05:18:41;66849.09;;;8.94;100.00
44144;BME280;71749;51.920;4.492;2024-02-23T05:21:27;66841.88;;;8.87;100.00
44144;BME280;71749;51.920;4.492;2024-02-23T05:24:13;66810.69;;;8.59;100.00
44144;BME280;71749;51.920;4.492;2024-02-23T05:26:58;66845.03;;;8.88;100.00
44144;BME280;71749;51.920;4.492;2024-02-23T05:29:46;66835.19;;;8.81;100.00
44144;BME280;71749;51.920;4.492;2024-02-23T05:32:32;66843.38;;;8.86;100.00
44144;BME280;71749;51.920;4.492;2024-02-23T05:35:17;66850.78;;;8.95;100.00
44144;BME280;71749;51.920;4.492;2024-02-23T05:38:03;66783.78;;;8.32;100.00
44144;BME280;71749;51.920;4.492;2024-02-23T05:40:51;66840.91;;;8.89;100.00
44144;BME280;71749;51.920;4.492;2024-02-23T05:43:42;66848.94;;;8.91;100.00
44144;BME280;71749;51.920;4.492;2024-02-23T05:46:27;66831.28;;;8.78;100.00
44144;BME280;71749;51.920;4.492;2024-02-23T05:49:12;66841.31;;;8.87;100.00
44144;BME280;71749;51.920;4.492;2024-02-23T05:51:58;66830.16;;;8.77;100.00
44144;BME280;71749;51.920;4.492;2024-02-23T05:54:43;66839.66;;;8.85;100.00
44144;BME280;71749;51.920;4.492;2024-02-23T05:57:29;66858.81;;;8.98;100.00
44144;BME280;71749;51.920;4.492;2024-02-23T06:00:15;66849.50;;;8.92;100.00
44144;BME280;71749;51.920;4.492;2024-02-23T06:03:04;66846.88;;;8.92;100.00
44144;BME280;71749;51.920;4.492;2024-02-23T06:05:49;66835.94;;;8.77;100.00
44144;BME280;71749;51.920;4.492;2024-02-23T06:08:35;66811.78;;;8.60;100.00
44144;BME280;71749;51.920;4.492;2024-02-23T06:11:21;66822.75;;;8.68;100.00
44144;BME280;71749;51.920;4.492;2024-02-23T06:14:06;66849.88;;;8.90;100.00
44144;BME280;71749;51.920;4.492;2024-02-23T06:16:52;66843.75;;;8.84;100.00
44144;BME280;71749;51.920;4.492;2024-02-23T06:19:37;66840.75;;;8.86;100.00
44144;BME280;71749;51.920;4.492;2024-02-23T06:22:23;66822.75;;;8.68;100.00
44144;BME280;71749;51.920;4.492;2024-02-23T06:25:11;66777.66;;;8.27;100.00
44144;BME280;71749;51.920;4.492;2024-02-23T06:27:57;66793.09;;;8.38;100.00
44144;BME280;71749;51.920;4.492;2024-02-23T06:30:42;66796.75;;;8.46;100.00
44144;BME280;71749;51.920;4.492;2024-02-23T06:33:28;66802.34;;;8.51;100.00
44144;BME280;71749;51.920;4.492;2024-02-23T06:36:14;66809.19;;;8.60;100.00
44144;BME280;71749;51.920;4.492;2024-02-23T06:38:59;66802.34;;;8.51;100.00
44144;BME280;71749;51.920;4.492;2024-02-23T06:41:45;66800.66;;;8.50;100.00
44144;BME280;71749;51.920;4.492;2024-02-23T06:44:30;66817.56;;;8.60;100.00
44144;BME280;71749;51.920;4.492;2024-02-23T06:47:18;66822.75;;;8.68;100.00
44144;BME280;71749;51.920;4.492;2024-02-23T06:50:04;66817.91;;;8.66;100.00
44144;BME280;71749;51.920;4.492;2024-02-23T06:52:50;66813.84;;;8.59;100.00
44144;BME280;71749;51.920;4.492;2024-02-23T06:55:35;66773.91;;;8.26;100.00
44144;BME280;71749;51.920;4.492;2024-02-23T06:58:21;66785.63;;;8.36;100.00
44144;BME280;71749;51.920;4.492;2024-02-23T07:01:06;66785.84;;;8.32;100.00
44144;BME280;71749;51.920;4.492;2024-02-23T07:03:56;66771.13;;;8.23;100.00
44144;BME280;71749;51.920;4.492;2024-02-23T07:06:41;66806.03;;;8.52;100.00
44144;BME280;71749;51.920;4.492;2024-02-23T07:09:27;66809.03;;;8.57;100.00
44144;BME280;71749;51.920;4.492;2024-02-23T07:12:12;66789.53;;;8.40;100.00
44144;BME280;71749;51.920;4.492;2024-02-23T07:15:00;66807.34;;;8.56;100.00
44144;BME280;71749;51.920;4.492;2024-02-23T07:17:45;66776.53;;;8.26;100.00
44144;BME280;71749;51.920;4.492;2024-02-23T07:20:31;66799.94;;;8.47;100.00
44144;BME280;71749;51.920;4.492;2024-02-23T07:23:16;66800.66;;;8.50;100.00
44144;BME280;71749;51.920;4.492;2024-02-23T07:26:02;66800.47;;;8.47;100.00
44144;BME280;71749;51.920;4.492;2024-02-23T07:28:48;66800.09;;;8.49;100.00
44144;BME280;71749;51.920;4.492;2024-02-23T07:31:34;66777.09;;;8.26;100.00
44144;BME280;71749;51.920;4.492;2024-02-23T07:34:19;66773.91;;;8.26;100.00
44144;BME280;71749;51.920;4.492;2024-02-23T07:37:05;66781.19;;;8.32;100.00
44144;BME280;71749;51.920;4.492;2024-02-23T07:39:50;66772.81;;;8.25;100.00
44144;BME280;71749;51.920;4.492;2024-02-23T07:42:36;66709.03;;;7.62;100.00
44144;BME280;71749;51.920;4.492;2024-02-23T07:45:30;66710.09;;;7.70;100.00
44144;BME280;71749;51.920;4.492;2024-02-23T07:48:15;66695.69;;;7.50;100.00
44144;BME280;71749;51.920;4.492;2024-02-23T07:51:01;66699.75;;;7.56;100.00
44144;BME280;71749;51.920;4.492;2024-02-23T07:53:47;66736.63;;;7.92;100.00
44144;BME280;71749;51.920;4.492;2024-02-23T07:56:32;66698.78;;;7.57;100.00
44144;BME280;71749;51.920;4.492;2024-02-23T07:59:18;66704.38;;;7.62;100.00
44144;BME280;71749;51.920;4.492;2024-02-23T08:02:04;66723.28;;;7.79;100.00
44144;BME280;71749;51.920;4.492;2024-02-23T08:04:49;66727.00;;;7.80;100.00
44144;BME280;71749;51.920;4.492;2024-02-23T08:07:35;66708.06;;;7.63;100.00
44144;BME280;71749;51.920;4.492;2024-02-23T08:10:21;66701.59;;;7.53;100.00
44144;BME280;71749;51.920;4.492;2024-02-23T08:13:07;66694.00;;;7.48;100.00
44144;BME280;71749;51.920;4.492;2024-02-23T08:15:53;66721.44;;;7.75;100.00
44144;BME280;71749;51.920;4.492;2024-02-23T08:18:38;66704.19;;;7.60;100.00
44144;BME280;71749;51.920;4.492;2024-02-23T08:21:25;66733.28;;;7.89;100.00
44144;BME280;71749;51.920;4.492;2024-02-23T08:24:11;66726.06;;;7.82;100.00
44144;BME280;71749;51.920;4.492;2024-02-23T08:26:56;66733.28;;;7.89;100.00
44144;BME280;71749;51.920;4.492;2024-02-23T08:29:41;66738.50;;;7.89;100.00
44144;BME280;71749;51.920;4.492;2024-02-23T08:32:26;66724.38;;;7.80;100.00
44144;BME280;71749;51.920;4.492;2024-02-23T08:35:12;66730.34;;;7.84;100.00
44144;BME280;71749;51.920;4.492;2024-02-23T08:37:57;66713.09;;;7.68;100.00
44144;BME280;71749;51.920;4.492;2024-02-23T08:40:43;66713.66;;;7.68;100.00
44144;BME280;71749;51.920;4.492;2024-02-23T08:43:30;66713.66;;;7.68;100.00
44144;BME280;71749;51.920;4.492;2024-02-23T08:46:15;66741.47;;;7.94;100.00
44144;BME280;71749;51.920;4.492;2024-02-23T08:49:01;66730.34;;;7.84;100.00
44144;BME280;71749;51.920;4.492;2024-02-23T08:51:46;66747.03;;;7.99;100.00
44144;BME280;71749;51.920;4.492;2024-02-23T08:54:31;66755.94;;;8.07;100.00
44144;BME280;71749;51.920;4.492;2024-02-23T08:57:16;66773.19;;;8.23;100.00
44144;BME280;71749;51.920;4.492;2024-02-23T09:00:05;66760.00;;;8.13;100.00
44144;BME280;71749;51.920;4.492;2024-02-23T09:02:50;66784.91;;;8.33;100.00
44144;BME280;71749;51.920;4.492;2024-02-23T09:05:36;66804.56;;;8.53;100.00
44144;BME280;71749;51.920;4.492;2024-02-23T09:08:22;66785.63;;;8.36;100.00
44144;BME280;71749;51.920;4.492;2024-02-23T09:11:07;66806.59;;;8.53;100.00
44144;BME280;71749;51.920;4.492;2024-02-23T09:13:53;66813.47;;;8.62;100.00
44144;BME280;71749;51.920;4.492;2024-02-23T09:16:38;66805.66;;;8.54;100.00
44144;BME280;71749;51.920;4.492;2024-02-23T09:19:24;66797.31;;;8.47;100.00
44144;BME280;71749;51.920;4.492;2024-02-23T09:22:09;66809.41;;;8.55;100.00
44144;BME280;71749;51.920;4.492;2024-02-23T09:24:55;66802.34;;;8.51;100.00
44144;BME280;71749;51.920;4.492;2024-02-23T09:27:41;66831.84;;;8.78;100.00
44144;BME280;71749;51.920;4.492;2024-02-23T09:30:28;66839.09;;;8.85;100.00
44144;BME280;71749;51.920;4.492;2024-02-23T09:33:14;66851.72;;;8.94;100.00
44144;BME280;71749;51.920;4.492;2024-02-23T09:36:02;66816.25;;;8.64;100.00
44144;BME280;71749;51.920;4.492;2024-02-23T09:38:47;66823.47;;;8.71;100.00
44144;BME280;71749;51.920;4.492;2024-02-23T09:41:34;66819.03;;;8.67;100.00
44144;BME280;71749;51.920;4.492;2024-02-23T09:44:20;66840.19;;;8.86;100.00
44144;BME280;71749;51.920;4.492;2024-02-23T09:47:08;66843.94;;;8.87;100.00
44144;BME280;71749;51.920;4.492;2024-02-23T09:49:55;66853.00;;;8.97;100.00
44144;BME280;71749;51.920;4.492;2024-02-23T09:52:42;66855.63;;;8.97;100.00
44144;BME280;71749;51.920;4.492;2024-02-23T09:55:28;66856.75;;;8.98;100.00
44144;BME280;71749;51.920;4.492;2024-02-23T09:58:13;66874.38;;;9.12;100.00
44144;BME280;71749;51.920;4.492;2024-02-23T10:01:03;66873.63;;;9.16;100.00
44144;BME280;71749;51.920;4.492;2024-02-23T10:03:48;66865.81;;;9.09;100.00
44144;BME280;71749;51.920;4.492;2024-02-23T10:06:34;66884.75;;;9.26;100.00
44144;BME280;71749;51.920;4.492;2024-02-23T10:09:19;66913.38;;;9.48;100.00
44144;BME280;71749;51.920;4.492;2024-02-23T10:12:07;66968.00;;;9.97;100.00
44144;BME280;71749;51.920;4.492;2024-02-23T10:14:52;67015.94;;;10.48;100.00
44144;BME280;71749;51.920;4.492;2024-02-23T10:17:38;67011.69;;;10.39;100.00
44144;BME280;71749;51.920;4.492;2024-02-23T10:20:24;67007.63;;;10.33;100.00
44144;BME280;71749;51.920;4.492;2024-02-23T10:23:10;66981.72;;;10.14;100.00
44144;BME280;71749;51.920;4.492;2024-02-23T10:25:56;67016.34;;;10.46;100.00
44144;BME280;71749;51.920;4.492;2024-02-23T10:28:41;67068.22;;;10.93;100.00
44144;BME280;71749;51.920;4.492;2024-02-23T10:31:27;67092.59;;;11.13;100.00
44144;BME280;71749;51.920;4.492;2024-02-23T10:34:12;67127.75;;;11.44;100.00
44144;BME280;71749;51.920;4.492;2024-02-23T10:36:59;67158.47;;;11.72;100.00
44144;BME280;71749;51.920;4.492;2024-02-23T10:39:45;67132.38;;;11.51;100.00
44144;BME280;71749;51.920;4.492;2024-02-23T10:42:34;67136.69;;;11.53;100.00
44144;BME280;71749;51.920;4.492;2024-02-23T10:45:21;67151.38;;;11.68;100.00
44144;BME280;71749;51.920;4.492;2024-02-23T10:48:09;67143.94;;;11.59;100.00
44144;BME280;71749;51.920;4.492;2024-02-23T10:50:56;67118.44;;;11.38;100.00
44144;BME280;71749;51.920;4.492;2024-02-23T10:53:45;67087.75;;;11.11;100.00
44144;BME280;71749;51.920;4.492;2024-02-23T10:56:31;67124.91;;;11.49;100.00
44144;BME280;71749;51.920;4.492;2024-02-23T10:59:17;67059.84;;;10.85;100.00
44144;BME280;71749;51.920;4.492;2024-02-23T11:02:04;67100.81;;;11.18;100.00
44144;BME280;71749;51.920;4.492;2024-02-23T11:04:50;67053.00;;;10.77;100.00
44144;BME280;71749;51.920;4.492;2024-02-23T11:07:40;67061.75;;;10.82;100.00
44144;BME280;71749;51.920;4.492;2024-02-23T11:10:25;67058.75;;;10.84;100.00
44144;BME280;71749;51.920;4.492;2024-02-23T11:13:15;67081.03;;;11.04;100.00
44144;BME280;71749;51.920;4.492;2024-02-23T11:16:04;67103.38;;;11.25;100.00
44144;BME280;71749;51.920;4.492;2024-02-23T11:18:49;67080.47;;;11.04;100.00
44144;BME280;71749;51.920;4.492;2024-02-23T11:21:35;67078.09;;;10.99;100.00
44144;BME280;71749;51.920;4.492;2024-02-23T11:24:25;67075.47;;;10.99;100.00
44144;BME280;71749;51.920;4.492;2024-02-23T11:27:14;67074.72;;;10.96;100.00
44144;BME280;71749;51.920;4.492;2024-02-23T11:30:07;67072.09;;;10.96;100.00
44144;BME280;71749;51.920;4.492;2024-02-23T11:32:58;67097.06;;;11.17;100.00
44144;BME280;71749;51.920;4.492;2024-02-23T11:35:49;67089.09;;;11.07;100.00
44144;BME280;71749;51.920;4.492;2024-02-23T11:38:36;67048.13;;;10.75;100.00
44144;BME280;71749;51.920;4.492;2024-02-23T11:41:25;67099.31;;;11.19;100.00
44144;BME280;71749;51.920;4.492;2024-02-23T11:44:10;67089.41;;;11.12;100.00
44144;BME280;71749;51.920;4.492;2024-02-23T11:46:58;67030.84;;;10.59;100.00
44144;BME280;71749;51.920;4.492;2024-02-23T11:49:45;67052.03;;;10.78;100.00
44144;BME280;71749;51.920;4.492;2024-02-23T11:52:30;67074.91;;;10.99;100.00
44144;BME280;71749;51.920;4.492;2024-02-23T11:55:19;67114.19;;;11.30;100.00
44144;BME280;71749;51.920;4.492;2024-02-23T11:58:09;67126.81;;;11.46;100.00
44144;BME280;71749;51.920;4.492;2024-02-23T12:01:03;67128.09;;;11.50;100.00
44144;BME280;71749;51.920;4.492;2024-02-23T12:03:48;67128.31;;;11.45;100.00
44144;BME280;71749;51.920;4.492;2024-02-23T12:06:34;67128.50;;;11.48;100.00
44144;BME280;71749;51.920;4.492;2024-02-23T12:09:19;67129.59;;;11.49;100.00
44144;BME280;71749;51.920;4.492;2024-02-23T12:12:05;67129.03;;;11.48;100.00
44144;BME280;71749;51.920;4.492;2024-02-23T12:14:50;67105.59;;;11.27;100.00
44144;BME280;71749;51.920;4.492;2024-02-23T12:17:36;67119.41;;;11.37;100.00
44144;BME280;71749;51.920;4.492;2024-02-23T12:20:23;67128.25;;;11.52;100.00
44144;BME280;71749;51.920;4.492;2024-02-23T12:23:08;67132.94;;;11.52;100.00
44144;BME280;71749;51.920;4.492;2024-02-23T12:25:59;67132.38;;;11.51;100.00
44144;BME280;71749;51.920;4.492;2024-02-23T12:28:45;67139.09;;;11.57;100.00
44144;BME280;71749;51.920;4.492;2024-02-23T12:31:32;67136.31;;;11.55;100.00
44144;BME280;71749;51.920;4.492;2024-02-23T12:34:18;67129.03;;;11.48;100.00
44144;BME280;71749;51.920;4.492;2024-02-23T12:37:07;67137.81;;;11.54;100.00
44144;BME280;71749;51.920;4.492;2024-02-23T12:39:53;67144.66;;;11.62;100.00
44144;BME280;71749;51.920;4.492;2024-02-23T12:42:39;67152.16;;;11.64;100.00
44144;BME280;71749;51.920;4.492;2024-02-23T12:45:24;67142.03;;;11.62;100.00
44144;BME280;71749;51.920;4.492;2024-02-23T12:48:09;67137.59;;;11.58;100.00
44144;BME280;71749;51.920;4.492;2024-02-23T12:50:56;67135.75;;;11.54;100.00
44144;BME280;71749;51.920;4.492;2024-02-23T12:53:42;67144.28;;;11.64;100.00
44144;BME280;71749;51.920;4.492;2024-02-23T12:56:28;67149.16;;;11.66;100.00
44144;BME280;71749;51.920;4.492;2024-02-23T12:59:13;67112.13;;;11.30;97.54
44144;BME280;71749;51.920;4.492;2024-02-23T13:01:58;67107.84;;;11.29;95.93
44144;BME280;71749;51.920;4.492;2024-02-23T13:04:44;67126.25;;;11.45;98.08
44144;BME280;71749;51.920;4.492;2024-02-23T13:07:33;67137.44;;;11.56;97.48
44144;BME280;71749;51.920;4.492;2024-02-23T13:10:18;67120.09;;;11.40;96.87
44144;BME280;71749;51.920;4.492;2024-02-23T13:13:04;67133.50;;;11.52;99.25
44144;BME280;71749;51.920;4.492;2024-02-23T13:15:51;67163.69;;;11.79;100.00
44144;BME280;71749;51.920;4.492;2024-02-23T13:18:37;67177.63;;;11.92;98.70
44144;BME280;71749;51.920;4.492;2024-02-23T13:21:28;67128.31;;;11.45;91.09
44144;BME280;71749;51.920;4.492;2024-02-23T13:24:14;67113.97;;;11.34;95.97
44144;BME280;71749;51.920;4.492;2024-02-23T13:26:59;67149.53;;;11.64;96.73
44144;BME280;71749;51.920;4.492;2024-02-23T13:29:44;67169.81;;;11.85;97.18
44144;BME280;71749;51.920;4.492;2024-02-23T13:32:30;67157.00;;;11.73;97.32
44144;BME280;71749;51.920;4.492;2024-02-23T13:35:15;67177.47;;;11.90;99.36
44144;BME280;71749;51.920;4.492;2024-02-23T13:38:02;67165.19;;;11.78;96.60
44144;BME280;71749;51.920;4.492;2024-02-23T13:40:50;67139.09;;;11.57;93.23
44144;BME280;71749;51.920;4.492;2024-02-23T13:43:38;67109.91;;;11.28;96.90
44144;BME280;71749;51.920;4.492;2024-02-23T13:46:24;67150.25;;;11.67;98.95
44144;BME280;71749;51.920;4.492;2024-02-23T13:49:10;67154.00;;;11.68;97.22
44144;BME280;71749;51.920;4.492;2024-02-23T13:51:58;67159.94;;;11.78;97.71
44144;BME280;71749;51.920;4.492;2024-02-23T13:54:43;67155.84;;;11.72;99.76
44144;BME280;71749;51.920;4.492;2024-02-23T13:57:28;67149.38;;;11.62;99.86
44144;BME280;71749;51.920;4.492;2024-02-23T14:00:15;67164.22;;;11.80;99.96
44144;BME280;71749;51.920;4.492;2024-02-23T14:03:00;67164.22;;;11.80;99.35
44144;BME280;71749;51.920;4.492;2024-02-23T14:05:47;67145.06;;;11.60;97.93
44144;BME280;71749;51.920;4.492;2024-02-23T14:08:34;67146.75;;;11.62;94.90
44144;BME280;71749;51.920;4.492;2024-02-23T14:11:19;67128.63;;;11.50;97.26
44144;BME280;71749;51.920;4.492;2024-02-23T14:14:05;67120.28;;;11.42;99.20
44144;BME280;71749;51.920;4.492;2024-02-23T14:16:56;67122.00;;;11.37;96.00
44144;BME280;71749;51.920;4.492;2024-02-23T14:19:42;67109.34;;;11.28;97.42
44144;BME280;71749;51.920;4.492;2024-02-23T14:22:28;67113.25;;;11.31;97.50
44144;BME280;71749;51.920;4.492;2024-02-23T14:25:15;67064.69;;;10.87;94.24
44144;BME280;71749;51.920;4.492;2024-02-23T14:28:01;67048.50;;;10.73;96.84
44144;BME280;71749;51.920;4.492;2024-02-23T14:30:46;67113.06;;;11.29;98.42
44144;BME280;71749;51.920;4.492;2024-02-23T14:33:33;67089.97;;;11.13;98.44
44144;BME280;71749;51.920;4.492;2024-02-23T14:36:18;67082.94;;;11.01;100.00